sensor_id;sensor_type;location;lat;lon;timestamp;temperature;humidity
32097;DHT22;18610;49.916;8.284;2024-01-30T00:00:33;3.30;99.90
32097;DHT22;18610;49.916;8.284;2024-01-30T00:02:59;3.30;99.90
32097;DHT22;18610;49.916;8.284;2024-01-30T00:05:26;3.30;99.90
32097;DHT22;18610;49.916;8.284;2024-01-30T00:07:53;3.30;99.90
32097;DHT22;18610;49.916;8.284;2024-01-30T00:10:21;3.30;99.90
32097;DHT22;18610;49.916;8.284;2024-01-30T00:12:47;3.20;99.90
32097;DHT22;18610;49.916;8.284;2024-01-30T00:15:14;3.20;99.90
32097;DHT22;18610;49.916;8.284;2024-01-30T00:17:41;3.20;99.90
32097;DHT22;18610;49.916;8.284;2024-01-30T00:20:08;3.10;99.90
32097;DHT22;18610;49.916;8.284;2024-01-30T00:22:35;3.10;99.90
32097;DHT22;18610;49.916;8.284;2024-01-30T00:25:02;3.10;99.90
32097;DHT22;18610;49.916;8.284;2024-01-30T00:27:30;3.10;99.90
32097;DHT22;18610;49.916;8.284;2024-01-30T00:29:56;3.10;99.90
32097;DHT22;18610;49.916;8.284;2024-01-30T00:32:23;3.10;99.90
32097;DHT22;18610;49.916;8.284;2024-01-30T00:34:50;3.10;99.90
32097;DHT22;18610;49.916;8.284;2024-01-30T00:37:16;3.10;99.90
32097;DHT22;18610;49.916;8.284;2024-01-30T00:39:43;3.10;99.90
32097;DHT22;18610;49.916;8.284;2024-01-30T00:42:10;3.10;99.90
32097;DHT22;18610;49.916;8.284;2024-01-30T00:44:38;3.10;99.90
32097;DHT22;18610;49.916;8.284;2024-01-30T00:47:05;3.10;99.90
32097;DHT22;18610;49.916;8.284;2024-01-30T00:49:31;3.00;99.90
32097;DHT22;18610;49.916;8.284;2024-01-30T00:51:58;3.10;99.90
32097;DHT22;18610;49.916;8.284;2024-01-30T00:54:25;3.10;99.90
32097;DHT22;18610;49.916;8.284;2024-01-30T00:56:51;3.20;99.90
32097;DHT22;18610;49.916;8.284;2024-01-30T00:59:18;3.30;99.90
32097;DHT22;18610;49.916;8.284;2024-01-30T01:01:46;3.30;99.90
32097;DHT22;18610;49.916;8.284;2024-01-30T01:04:13;3.30;99.90
32097;DHT22;18610;49.916;8.284;2024-01-30T01:06:39;3.30;99.90
32097;DHT22;18610;49.916;8.284;2024-01-30T01:09:08;3.30;99.90
32097;DHT22;18610;49.916;8.284;2024-01-30T01:11:37;3.20;99.90
32097;DHT22;18610;49.916;8.284;2024-01-30T01:14:04;3.20;99.90
32097;DHT22;18610;49.916;8.284;2024-01-30T01:16:31;3.20;99.90
32097;DHT22;18610;49.916;8.284;2024-01-30T01:18:59;3.20;99.90
32097;DHT22;18610;49.916;8.284;2024-01-30T01:21:26;3.20;99.90
32097;DHT22;18610;49.916;8.284;2024-01-30T01:23:52;3.20;99.90
32097;DHT22;18610;49.916;8.284;2024-01-30T01:26:19;3.20;99.90
32097;DHT22;18610;49.916;8.284;2024-01-30T01:28:46;3.20;99.90
32097;DHT22;18610;49.916;8.284;2024-01-30T01:31:12;3.20;99.90
32097;DHT22;18610;49.916;8.284;2024-01-30T01:33:39;3.10;99.90
32097;DHT22;18610;49.916;8.284;2024-01-30T01:36:07;3.10;99.90
32097;DHT22;18610;49.916;8.284;2024-01-30T01:38:34;3.00;99.90
32097;DHT22;18610;49.916;8.284;2024-01-30T01:41:00;3.00;99.90
32097;DHT22;18610;49.916;8.284;2024-01-30T01:43:27;2.90;99.90
32097;DHT22;18610;49.916;8.284;2024-01-30T01:45:54;2.90;99.90
32097;DHT22;18610;49.916;8.284;2024-01-30T01:48:21;2.90;99.90
32097;DHT22;18610;49.916;8.284;2024-01-30T01:50:47;2.80;99.90
32097;DHT22;18610;49.916;8.284;2024-01-30T01:53:16;2.90;99.90
32097;DHT22;18610;49.916;8.284;2024-01-30T01:55:43;2.90;99.90
32097;DHT22;18610;49.916;8.284;2024-01-30T01:58:10;3.00;99.90
32097;DHT22;18610;49.916;8.284;2024-01-30T02:00:39;3.00;99.90
32097;DHT22;18610;49.916;8.284;2024-01-30T02:03:10;3.00;99.90
32097;DHT22;18610;49.916;8.284;2024-01-30T02:05:38;3.10;99.90
32097;DHT22;18610;49.916;8.284;2024-01-30T02:08:05;3.00;99.90
32097;DHT22;18610;49.916;8.284;2024-01-30T02:10:34;2.90;99.90
32097;DHT22;18610;49.916;8.284;2024-01-30T02:13:01;2.80;99.90
32097;DHT22;18610;49.916;8.284;2024-01-30T02:15:28;2.80;99.90
32097;DHT22;18610;49.916;8.284;2024-01-30T02:17:55;2.70;99.90
32097;DHT22;18610;49.916;8.284;2024-01-30T02:20:24;2.70;99.90
32097;DHT22;18610;49.916;8.284;2024-01-30T02:22:53;2.70;99.90
32097;DHT22;18610;49.916;8.284;2024-01-30T02:25:20;2.70;99.90
32097;DHT22;18610;49.916;8.284;2024-01-30T02:27:56;2.70;99.90
32097;DHT22;18610;49.916;8.284;2024-01-30T02:30:25;2.70;99.90
32097;DHT22;18610;49.916;8.284;2024-01-30T02:32:52;2.70;99.90
32097;DHT22;18610;49.916;8.284;2024-01-30T02:35:19;2.70;99.90
32097;DHT22;18610;49.916;8.284;2024-01-30T02:37:45;2.70;99.90
32097;DHT22;18610;49.916;8.284;2024-01-30T02:40:14;2.60;99.90
32097;DHT22;18610;49.916;8.284;2024-01-30T02:42:40;2.60;99.90
32097;DHT22;18610;49.916;8.284;2024-01-30T02:45:09;2.60;99.90
32097;DHT22;18610;49.916;8.284;2024-01-30T02:47:36;2.50;99.90
32097;DHT22;18610;49.916;8.284;2024-01-30T02:50:03;2.50;99.90
32097;DHT22;18610;49.916;8.284;2024-01-30T02:52:30;2.50;99.90
32097;DHT22;18610;49.916;8.284;2024-01-30T02:54:56;2.50;99.90
32097;DHT22;18610;49.916;8.284;2024-01-30T02:57:24;2.50;99.90
32097;DHT22;18610;49.916;8.284;2024-01-30T02:59:51;2.50;99.90
32097;DHT22;18610;49.916;8.284;2024-01-30T03:02:18;2.50;99.90
32097;DHT22;18610;49.916;8.284;2024-01-30T03:04:45;2.50;99.90
32097;DHT22;18610;49.916;8.284;2024-01-30T03:07:12;2.50;99.90
32097;DHT22;18610;49.916;8.284;2024-01-30T03:09:39;2.50;99.90
32097;DHT22;18610;49.916;8.284;2024-01-30T03:12:07;2.50;99.90
32097;DHT22;18610;49.916;8.284;2024-01-30T03:14:35;2.60;99.90
32097;DHT22;18610;49.916;8.284;2024-01-30T03:17:03;2.50;99.90
32097;DHT22;18610;49.916;8.284;2024-01-30T03:19:29;2.60;99.90
32097;DHT22;18610;49.916;8.284;2024-01-30T03:21:56;2.60;99.90
32097;DHT22;18610;49.916;8.284;2024-01-30T03:24:23;2.60;99.90
32097;DHT22;18610;49.916;8.284;2024-01-30T03:26:49;2.60;99.90
32097;DHT22;18610;49.916;8.284;2024-01-30T03:29:16;2.50;99.90
32097;DHT22;18610;49.916;8.284;2024-01-30T03:31:44;2.50;99.90
32097;DHT22;18610;49.916;8.284;2024-01-30T03:34:11;2.50;99.90
32097;DHT22;18610;49.916;8.284;2024-01-30T03:36:38;2.40;99.90
32097;DHT22;18610;49.916;8.284;2024-01-30T03:39:04;2.40;99.90
32097;DHT22;18610;49.916;8.284;2024-01-30T03:41:31;2.40;99.90
32097;DHT22;18610;49.916;8.284;2024-01-30T03:43:58;2.40;99.90
32097;DHT22;18610;49.916;8.284;2024-01-30T03:46:25;2.50;99.90
32097;DHT22;18610;49.916;8.284;2024-01-30T03:48:53;2.50;99.90
32097;DHT22;18610;49.916;8.284;2024-01-30T03:51:19;2.50;99.90
32097;DHT22;18610;49.916;8.284;2024-01-30T03:53:46;2.50;99.90
32097;DHT22;18610;49.916;8.284;2024-01-30T03:56:13;2.60;99.90
32097;DHT22;18610;49.916;8.284;2024-01-30T03:58:39;2.60;99.90
32097;DHT22;18610;49.916;8.284;2024-01-30T04:01:06;2.60;99.90
32097;DHT22;18610;49.916;8.284;2024-01-30T04:03:33;2.50;99.90
32097;DHT22;18610;49.916;8.284;2024-01-30T04:06:01;2.50;99.90
32097;DHT22;18610;49.916;8.284;2024-01-30T04:08:28;2.40;99.90
32097;DHT22;18610;49.916;8.284;2024-01-30T04:10:54;2.30;99.90
32097;DHT22;18610;49.916;8.284;2024-01-30T04:13:21;2.20;99.90
32097;DHT22;18610;49.916;8.284;2024-01-30T04:15:47;2.20;99.90
32097;DHT22;18610;49.916;8.284;2024-01-30T04:18:14;2.20;99.90
32097;DHT22;18610;49.916;8.284;2024-01-30T04:20:41;2.20;99.90
32097;DHT22;18610;49.916;8.284;2024-01-30T04:23:09;2.30;99.90
32097;DHT22;18610;49.916;8.284;2024-01-30T04:25:36;2.20;99.90
32097;DHT22;18610;49.916;8.284;2024-01-30T04:28:03;2.30;99.90
32097;DHT22;18610;49.916;8.284;2024-01-30T04:30:29;2.30;99.90
32097;DHT22;18610;49.916;8.284;2024-01-30T04:32:56;2.30;99.90
32097;DHT22;18610;49.916;8.284;2024-01-30T04:35:23;2.30;99.90
32097;DHT22;18610;49.916;8.284;2024-01-30T04:37:51;2.30;99.90
32097;DHT22;18610;49.916;8.284;2024-01-30T04:40:19;2.40;99.90
32097;DHT22;18610;49.916;8.284;2024-01-30T04:42:46;2.40;99.90
32097;DHT22;18610;49.916;8.284;2024-01-30T04:45:13;2.40;99.90
32097;DHT22;18610;49.916;8.284;2024-01-30T04:47:39;2.40;99.90
32097;DHT22;18610;49.916;8.284;2024-01-30T04:50:08;2.40;99.90
32097;DHT22;18610;49.916;8.284;2024-01-30T04:52:35;2.40;99.90
32097;DHT22;18610;49.916;8.284;2024-01-30T04:55:02;2.40;99.90
32097;DHT22;18610;49.916;8.284;2024-01-30T04:57:30;2.30;99.90
32097;DHT22;18610;49.916;8.284;2024-01-30T04:59:59;2.30;99.90
32097;DHT22;18610;49.916;8.284;2024-01-30T05:02:25;2.20;99.90
32097;DHT22;18610;49.916;8.284;2024-01-30T05:04:52;2.20;99.90
32097;DHT22;18610;49.916;8.284;2024-01-30T05:07:19;2.20;99.90
32097;DHT22;18610;49.916;8.284;2024-01-30T05:09:45;2.10;99.90
32097;DHT22;18610;49.916;8.284;2024-01-30T05:12:12;2.10;99.90
32097;DHT22;18610;49.916;8.284;2024-01-30T05:14:40;2.10;99.90
32097;DHT22;18610;49.916;8.284;2024-01-30T05:17:07;2.10;99.90
32097;DHT22;18610;49.916;8.284;2024-01-30T05:19:35;2.10;99.90
32097;DHT22;18610;49.916;8.284;2024-01-30T05:22:02;2.10;99.90
32097;DHT22;18610;49.916;8.284;2024-01-30T05:24:28;2.10;99.90
32097;DHT22;18610;49.916;8.284;2024-01-30T05:26:55;2.10;99.90
32097;DHT22;18610;49.916;8.284;2024-01-30T05:29:22;2.10;99.90
32097;DHT22;18610;49.916;8.284;2024-01-30T05:31:50;2.10;99.90
32097;DHT22;18610;49.916;8.284;2024-01-30T05:34:17;2.00;99.90
32097;DHT22;18610;49.916;8.284;2024-01-30T05:36:43;2.10;99.90
32097;DHT22;18610;49.916;8.284;2024-01-30T05:39:10;2.00;99.90
32097;DHT22;18610;49.916;8.284;2024-01-30T05:41:37;2.00;99.90
32097;DHT22;18610;49.916;8.284;2024-01-30T05:44:03;2.10;99.90
32097;DHT22;18610;49.916;8.284;2024-01-30T05:46:30;2.10;99.90
32097;DHT22;18610;49.916;8.284;2024-01-30T05:48:58;2.00;99.90
32097;DHT22;18610;49.916;8.284;2024-01-30T05:51:25;2.00;99.90
32097;DHT22;18610;49.916;8.284;2024-01-30T05:53:51;2.00;99.90
32097;DHT22;18610;49.916;8.284;2024-01-30T05:56:18;2.00;99.90
32097;DHT22;18610;49.916;8.284;2024-01-30T05:58:45;1.90;99.90
32097;DHT22;18610;49.916;8.284;2024-01-30T06:01:12;1.90;99.90
32097;DHT22;18610;49.916;8.284;2024-01-30T06:03:38;1.90;99.90
32097;DHT22;18610;49.916;8.284;2024-01-30T06:06:07;1.90;99.90
32097;DHT22;18610;49.916;8.284;2024-01-30T06:08:34;1.90;99.90
32097;DHT22;18610;49.916;8.284;2024-01-30T06:11:00;1.80;99.90
32097;DHT22;18610;49.916;8.284;2024-01-30T06:13:27;1.80;99.90
32097;DHT22;18610;49.916;8.284;2024-01-30T06:15:56;1.80;99.90
32097;DHT22;18610;49.916;8.284;2024-01-30T06:18:22;1.80;99.90
32097;DHT22;18610;49.916;8.284;2024-01-30T06:20:49;1.80;99.90
32097;DHT22;18610;49.916;8.284;2024-01-30T06:23:17;1.80;99.90
32097;DHT22;18610;49.916;8.284;2024-01-30T06:25:44;1.80;99.90
32097;DHT22;18610;49.916;8.284;2024-01-30T06:28:11;1.80;99.90
32097;DHT22;18610;49.916;8.284;2024-01-30T06:30:37;1.80;99.90
32097;DHT22;18610;49.916;8.284;2024-01-30T06:33:04;1.80;99.90
32097;DHT22;18610;49.916;8.284;2024-01-30T06:35:31;1.80;99.90
32097;DHT22;18610;49.916;8.284;2024-01-30T06:37:58;1.80;99.90
32097;DHT22;18610;49.916;8.284;2024-01-30T06:40:26;1.90;99.90
32097;DHT22;18610;49.916;8.284;2024-01-30T06:42:53;1.90;99.90
32097;DHT22;18610;49.916;8.284;2024-01-30T06:45:19;1.90;99.90
32097;DHT22;18610;49.916;8.284;2024-01-30T06:47:46;1.90;99.90
32097;DHT22;18610;49.916;8.284;2024-01-30T06:50:13;1.90;99.90
32097;DHT22;18610;49.916;8.284;2024-01-30T06:52:40;1.90;99.90
32097;DHT22;18610;49.916;8.284;2024-01-30T06:55:07;1.90;99.90
32097;DHT22;18610;49.916;8.284;2024-01-30T06:57:35;1.90;99.90
32097;DHT22;18610;49.916;8.284;2024-01-30T07:00:02;1.90;99.90
32097;DHT22;18610;49.916;8.284;2024-01-30T07:02:29;1.90;99.90
32097;DHT22;18610;49.916;8.284;2024-01-30T07:04:56;1.90;99.90
32097;DHT22;18610;49.916;8.284;2024-01-30T07:07:22;1.90;99.90
32097;DHT22;18610;49.916;8.284;2024-01-30T07:09:49;1.90;99.90
32097;DHT22;18610;49.916;8.284;2024-01-30T07:12:21;1.90;99.90
32097;DHT22;18610;49.916;8.284;2024-01-30T07:14:49;1.90;99.90
32097;DHT22;18610;49.916;8.284;2024-01-30T07:17:15;1.90;99.90
32097;DHT22;18610;49.916;8.284;2024-01-30T07:19:42;1.90;99.90
32097;DHT22;18610;49.916;8.284;2024-01-30T07:22:09;1.90;99.90
32097;DHT22;18610;49.916;8.284;2024-01-30T07:24:36;1.90;99.90
32097;DHT22;18610;49.916;8.284;2024-01-30T07:27:03;1.90;99.90
32097;DHT22;18610;49.916;8.284;2024-01-30T07:29:30;1.90;99.90
32097;DHT22;18610;49.916;8.284;2024-01-30T07:31:57;1.90;99.90
32097;DHT22;18610;49.916;8.284;2024-01-30T07:34:24;1.90;99.90
32097;DHT22;18610;49.916;8.284;2024-01-30T07:36:51;1.90;99.90
32097;DHT22;18610;49.916;8.284;2024-01-30T07:39:17;1.90;99.90
32097;DHT22;18610;49.916;8.284;2024-01-30T07:41:44;1.90;99.90
32097;DHT22;18610;49.916;8.284;2024-01-30T07:44:11;1.90;99.90
32097;DHT22;18610;49.916;8.284;2024-01-30T07:46:37;2.00;99.90
32097;DHT22;18610;49.916;8.284;2024-01-30T07:49:05;2.00;99.90
32097;DHT22;18610;49.916;8.284;2024-01-30T07:51:32;2.00;99.90
32097;DHT22;18610;49.916;8.284;2024-01-30T07:53:58;2.00;99.90
32097;DHT22;18610;49.916;8.284;2024-01-30T07:56:25;2.00;99.90
32097;DHT22;18610;49.916;8.284;2024-01-30T07:58:52;2.10;99.90
32097;DHT22;18610;49.916;8.284;2024-01-30T08:01:19;2.10;99.90
32097;DHT22;18610;49.916;8.284;2024-01-30T08:03:45;2.10;99.90
32097;DHT22;18610;49.916;8.284;2024-01-30T08:06:13;2.20;99.90
32097;DHT22;18610;49.916;8.284;2024-01-30T08:08:40;2.30;99.90
32097;DHT22;18610;49.916;8.284;2024-01-30T08:11:07;2.30;99.90
32097;DHT22;18610;49.916;8.284;2024-01-30T08:13:34;2.40;99.90
32097;DHT22;18610;49.916;8.284;2024-01-30T08:16:00;2.40;99.90
32097;DHT22;18610;49.916;8.284;2024-01-30T08:18:27;2.50;99.90
32097;DHT22;18610;49.916;8.284;2024-01-30T08:20:54;2.50;99.90
32097;DHT22;18610;49.916;8.284;2024-01-30T08:23:22;2.60;99.90
32097;DHT22;18610;49.916;8.284;2024-01-30T08:25:48;2.60;99.90
32097;DHT22;18610;49.916;8.284;2024-01-30T08:28:15;2.70;99.90
32097;DHT22;18610;49.916;8.284;2024-01-30T08:30:42;2.80;99.90
32097;DHT22;18610;49.916;8.284;2024-01-30T08:33:08;2.80;99.90
32097;DHT22;18610;49.916;8.284;2024-01-30T08:35:35;2.80;99.90
32097;DHT22;18610;49.916;8.284;2024-01-30T08:38:02;2.80;99.90
32097;DHT22;18610;49.916;8.284;2024-01-30T08:40:30;2.90;99.90
32097;DHT22;18610;49.916;8.284;2024-01-30T08:42:56;2.90;99.90
32097;DHT22;18610;49.916;8.284;2024-01-30T08:45:23;2.90;99.90
32097;DHT22;18610;49.916;8.284;2024-01-30T08:47:50;3.00;99.90
32097;DHT22;18610;49.916;8.284;2024-01-30T08:50:17;3.00;99.90
32097;DHT22;18610;49.916;8.284;2024-01-30T08:52:43;3.00;99.90
32097;DHT22;18610;49.916;8.284;2024-01-30T08:55:10;3.10;99.90
32097;DHT22;18610;49.916;8.284;2024-01-30T08:57:38;3.10;99.90
32097;DHT22;18610;49.916;8.284;2024-01-30T09:00:06;3.10;99.90
32097;DHT22;18610;49.916;8.284;2024-01-30T09:02:35;3.10;99.90
32097;DHT22;18610;49.916;8.284;2024-01-30T09:05:01;3.20;99.90
32097;DHT22;18610;49.916;8.284;2024-01-30T09:07:28;3.20;99.90
32097;DHT22;18610;49.916;8.284;2024-01-30T09:09:55;3.30;99.90
32097;DHT22;18610;49.916;8.284;2024-01-30T09:12:21;3.40;99.90
32097;DHT22;18610;49.916;8.284;2024-01-30T09:14:49;3.40;99.90
32097;DHT22;18610;49.916;8.284;2024-01-30T09:17:16;3.50;99.90
32097;DHT22;18610;49.916;8.284;2024-01-30T09:19:43;3.60;99.90
32097;DHT22;18610;49.916;8.284;2024-01-30T09:22:09;3.70;99.90
32097;DHT22;18610;49.916;8.284;2024-01-30T09:24:36;3.70;99.90
32097;DHT22;18610;49.916;8.284;2024-01-30T09:27:06;3.80;99.90
32097;DHT22;18610;49.916;8.284;2024-01-30T09:29:32;3.90;99.90
32097;DHT22;18610;49.916;8.284;2024-01-30T09:32:01;3.90;99.90
32097;DHT22;18610;49.916;8.284;2024-01-30T09:34:27;4.00;99.90
32097;DHT22;18610;49.916;8.284;2024-01-30T09:36:54;4.10;99.90
32097;DHT22;18610;49.916;8.284;2024-01-30T09:39:21;4.10;99.90
32097;DHT22;18610;49.916;8.284;2024-01-30T09:41:49;4.20;99.90
32097;DHT22;18610;49.916;8.284;2024-01-30T09:44:20;4.20;99.90
32097;DHT22;18610;49.916;8.284;2024-01-30T09:46:47;4.20;99.90
32097;DHT22;18610;49.916;8.284;2024-01-30T09:49:16;4.30;99.90
32097;DHT22;18610;49.916;8.284;2024-01-30T09:51:44;4.30;99.90
32097;DHT22;18610;49.916;8.284;2024-01-30T09:54:14;4.40;99.90
32097;DHT22;18610;49.916;8.284;2024-01-30T09:56:40;4.40;99.90
32097;DHT22;18610;49.916;8.284;2024-01-30T09:59:07;4.40;99.90
32097;DHT22;18610;49.916;8.284;2024-01-30T10:01:34;4.50;99.90
32097;DHT22;18610;49.916;8.284;2024-01-30T10:04:01;4.50;99.90
32097;DHT22;18610;49.916;8.284;2024-01-30T10:06:29;4.60;99.90
32097;DHT22;18610;49.916;8.284;2024-01-30T10:08:56;4.70;99.90
32097;DHT22;18610;49.916;8.284;2024-01-30T10:11:23;4.70;99.90
32097;DHT22;18610;49.916;8.284;2024-01-30T10:13:49;4.80;99.90
32097;DHT22;18610;49.916;8.284;2024-01-30T10:16:16;4.80;99.90
32097;DHT22;18610;49.916;8.284;2024-01-30T10:18:43;4.90;99.90
32097;DHT22;18610;49.916;8.284;2024-01-30T10:21:09;5.00;99.90
32097;DHT22;18610;49.916;8.284;2024-01-30T10:23:38;5.00;99.90
32097;DHT22;18610;49.916;8.284;2024-01-30T10:26:05;5.10;99.90
32097;DHT22;18610;49.916;8.284;2024-01-30T10:28:33;5.10;99.90
32097;DHT22;18610;49.916;8.284;2024-01-30T10:31:00;5.10;99.90
32097;DHT22;18610;49.916;8.284;2024-01-30T10:33:29;5.20;99.90
32097;DHT22;18610;49.916;8.284;2024-01-30T10:36:00;5.30;99.90
32097;DHT22;18610;49.916;8.284;2024-01-30T10:38:28;5.40;99.90
32097;DHT22;18610;49.916;8.284;2024-01-30T10:40:58;5.50;99.90
32097;DHT22;18610;49.916;8.284;2024-01-30T10:43:30;5.60;99.90
32097;DHT22;18610;49.916;8.284;2024-01-30T10:46:01;5.70;99.90
32097;DHT22;18610;49.916;8.284;2024-01-30T10:48:32;5.80;99.90
32097;DHT22;18610;49.916;8.284;2024-01-30T10:51:05;5.90;99.90
32097;DHT22;18610;49.916;8.284;2024-01-30T10:53:32;6.00;99.90
32097;DHT22;18610;49.916;8.284;2024-01-30T10:56:01;6.10;99.90
32097;DHT22;18610;49.916;8.284;2024-01-30T10:58:29;6.20;99.90
32097;DHT22;18610;49.916;8.284;2024-01-30T11:00:56;6.30;99.90
32097;DHT22;18610;49.916;8.284;2024-01-30T11:03:23;6.40;99.90
32097;DHT22;18610;49.916;8.284;2024-01-30T11:05:50;6.50;99.90
32097;DHT22;18610;49.916;8.284;2024-01-30T11:08:23;6.70;99.90
32097;DHT22;18610;49.916;8.284;2024-01-30T11:10:55;6.90;99.90
32097;DHT22;18610;49.916;8.284;2024-01-30T11:13:27;7.00;99.90
32097;DHT22;18610;49.916;8.284;2024-01-30T11:15:54;7.20;99.90
32097;DHT22;18610;49.916;8.284;2024-01-30T11:18:24;7.30;99.90
32097;DHT22;18610;49.916;8.284;2024-01-30T11:20:51;7.40;99.90
32097;DHT22;18610;49.916;8.284;2024-01-30T11:23:18;7.50;99.90
32097;DHT22;18610;49.916;8.284;2024-01-30T11:25:44;7.50;99.90
32097;DHT22;18610;49.916;8.284;2024-01-30T11:28:13;7.40;99.90
32097;DHT22;18610;49.916;8.284;2024-01-30T11:30:42;7.40;99.90
32097;DHT22;18610;49.916;8.284;2024-01-30T11:33:11;7.30;99.90
32097;DHT22;18610;49.916;8.284;2024-01-30T11:35:39;7.30;99.90
32097;DHT22;18610;49.916;8.284;2024-01-30T11:38:07;7.20;99.90
32097;DHT22;18610;49.916;8.284;2024-01-30T11:40:35;7.20;99.90
32097;DHT22;18610;49.916;8.284;2024-01-30T11:43:03;7.20;99.90
32097;DHT22;18610;49.916;8.284;2024-01-30T11:45:31;7.20;99.90
32097;DHT22;18610;49.916;8.284;2024-01-30T11:47:59;7.10;99.90
32097;DHT22;18610;49.916;8.284;2024-01-30T11:50:28;7.00;99.90
32097;DHT22;18610;49.916;8.284;2024-01-30T11:52:55;7.10;99.90
32097;DHT22;18610;49.916;8.284;2024-01-30T11:55:23;7.10;99.90
32097;DHT22;18610;49.916;8.284;2024-01-30T11:57:50;7.30;99.90
32097;DHT22;18610;49.916;8.284;2024-01-30T12:00:18;7.40;99.90
32097;DHT22;18610;49.916;8.284;2024-01-30T12:02:49;7.50;99.90
32097;DHT22;18610;49.916;8.284;2024-01-30T12:05:19;7.60;99.90
32097;DHT22;18610;49.916;8.284;2024-01-30T12:07:46;7.60;99.90
32097;DHT22;18610;49.916;8.284;2024-01-30T12:10:12;7.60;99.90
32097;DHT22;18610;49.916;8.284;2024-01-30T12:12:42;7.70;99.90
32097;DHT22;18610;49.916;8.284;2024-01-30T12:15:09;7.80;99.90
32097;DHT22;18610;49.916;8.284;2024-01-30T12:17:36;7.90;99.90
32097;DHT22;18610;49.916;8.284;2024-01-30T12:20:03;8.10;99.90
32097;DHT22;18610;49.916;8.284;2024-01-30T12:22:35;8.30;99.90
32097;DHT22;18610;49.916;8.284;2024-01-30T12:25:04;8.40;99.90
32097;DHT22;18610;49.916;8.284;2024-01-30T12:27:31;8.70;99.90
32097;DHT22;18610;49.916;8.284;2024-01-30T12:29:58;8.90;99.90
32097;DHT22;18610;49.916;8.284;2024-01-30T12:32:24;9.10;99.90
32097;DHT22;18610;49.916;8.284;2024-01-30T12:34:54;9.30;99.90
32097;DHT22;18610;49.916;8.284;2024-01-30T12:37:21;9.40;99.90
32097;DHT22;18610;49.916;8.284;2024-01-30T12:39:51;9.60;99.90
32097;DHT22;18610;49.916;8.284;2024-01-30T12:42:19;9.80;99.90
32097;DHT22;18610;49.916;8.284;2024-01-30T12:44:47;10.00;99.90
32097;DHT22;18610;49.916;8.284;2024-01-30T12:47:14;10.20;99.90
32097;DHT22;18610;49.916;8.284;2024-01-30T12:49:42;10.40;99.90
32097;DHT22;18610;49.916;8.284;2024-01-30T12:52:09;10.50;99.90
32097;DHT22;18610;49.916;8.284;2024-01-30T12:54:36;10.70;99.90
32097;DHT22;18610;49.916;8.284;2024-01-30T12:57:04;10.70;99.90
32097;DHT22;18610;49.916;8.284;2024-01-30T12:59:31;10.80;99.90
32097;DHT22;18610;49.916;8.284;2024-01-30T13:02:00;10.70;99.90
32097;DHT22;18610;49.916;8.284;2024-01-30T13:04:27;10.60;99.90
32097;DHT22;18610;49.916;8.284;2024-01-30T13:06:54;10.50;99.90
32097;DHT22;18610;49.916;8.284;2024-01-30T13:09:22;10.40;99.90
32097;DHT22;18610;49.916;8.284;2024-01-30T13:11:49;10.30;99.90
32097;DHT22;18610;49.916;8.284;2024-01-30T13:14:17;10.20;99.90
32097;DHT22;18610;49.916;8.284;2024-01-30T13:16:44;10.10;99.90
32097;DHT22;18610;49.916;8.284;2024-01-30T13:19:11;10.00;99.90
32097;DHT22;18610;49.916;8.284;2024-01-30T13:21:38;10.00;99.90
32097;DHT22;18610;49.916;8.284;2024-01-30T13:24:05;10.00;99.90
32097;DHT22;18610;49.916;8.284;2024-01-30T13:26:33;10.00;99.90
32097;DHT22;18610;49.916;8.284;2024-01-30T13:29:00;10.00;99.90
32097;DHT22;18610;49.916;8.284;2024-01-30T13:31:28;10.10;99.90
32097;DHT22;18610;49.916;8.284;2024-01-30T13:33:55;10.20;99.90
32097;DHT22;18610;49.916;8.284;2024-01-30T13:36:22;10.20;99.90
32097;DHT22;18610;49.916;8.284;2024-01-30T13:38:49;10.30;99.90
32097;DHT22;18610;49.916;8.284;2024-01-30T13:41:16;10.30;99.90
32097;DHT22;18610;49.916;8.284;2024-01-30T13:43:43;10.30;99.90
32097;DHT22;18610;49.916;8.284;2024-01-30T13:46:10;10.30;99.90
32097;DHT22;18610;49.916;8.284;2024-01-30T13:48:38;10.30;99.90
32097;DHT22;18610;49.916;8.284;2024-01-30T13:51:05;10.20;99.90
32097;DHT22;18610;49.916;8.284;2024-01-30T13:53:32;10.20;99.90
32097;DHT22;18610;49.916;8.284;2024-01-30T13:55:58;10.10;99.90
32097;DHT22;18610;49.916;8.284;2024-01-30T13:58:25;10.10;99.90
32097;DHT22;18610;49.916;8.284;2024-01-30T14:00:53;10.00;99.90
32097;DHT22;18610;49.916;8.284;2024-01-30T14:03:20;10.00;99.90
32097;DHT22;18610;49.916;8.284;2024-01-30T14:05:48;9.90;99.90
32097;DHT22;18610;49.916;8.284;2024-01-30T14:08:15;9.90;99.90
32097;DHT22;18610;49.916;8.284;2024-01-30T14:10:42;9.90;99.90
32097;DHT22;18610;49.916;8.284;2024-01-30T14:13:09;9.90;99.90
32097;DHT22;18610;49.916;8.284;2024-01-30T14:15:37;9.80;99.90
32097;DHT22;18610;49.916;8.284;2024-01-30T14:18:04;9.80;99.90
32097;DHT22;18610;49.916;8.284;2024-01-30T14:20:30;9.80;99.90
32097;DHT22;18610;49.916;8.284;2024-01-30T14:23:01;9.80;99.90
32097;DHT22;18610;49.916;8.284;2024-01-30T14:25:27;9.70;99.90
32097;DHT22;18610;49.916;8.284;2024-01-30T14:27:54;9.70;99.90
32097;DHT22;18610;49.916;8.284;2024-01-30T14:30:21;9.70;99.90
32097;DHT22;18610;49.916;8.284;2024-01-30T14:32:48;9.60;99.90
32097;DHT22;18610;49.916;8.284;2024-01-30T14:35:15;9.60;99.90
32097;DHT22;18610;49.916;8.284;2024-01-30T14:37:41;9.60;99.90
32097;DHT22;18610;49.916;8.284;2024-01-30T14:40:10;9.60;99.90
32097;DHT22;18610;49.916;8.284;2024-01-30T14:42:36;9.70;99.90
32097;DHT22;18610;49.916;8.284;2024-01-30T14:45:05;9.70;99.90
32097;DHT22;18610;49.916;8.284;2024-01-30T14:47:31;9.70;99.90
32097;DHT22;18610;49.916;8.284;2024-01-30T14:49:58;9.70;99.90
32097;DHT22;18610;49.916;8.284;2024-01-30T14:52:25;9.70;99.90
32097;DHT22;18610;49.916;8.284;2024-01-30T14:54:51;9.70;99.90
32097;DHT22;18610;49.916;8.284;2024-01-30T14:57:19;9.60;99.90
32097;DHT22;18610;49.916;8.284;2024-01-30T14:59:46;9.60;99.90
32097;DHT22;18610;49.916;8.284;2024-01-30T15:02:13;9.60;99.90
32097;DHT22;18610;49.916;8.284;2024-01-30T15:04:41;9.50;99.90
32097;DHT22;18610;49.916;8.284;2024-01-30T15:07:07;9.40;99.90
32097;DHT22;18610;49.916;8.284;2024-01-30T15:09:34;9.40;99.90
32097;DHT22;18610;49.916;8.284;2024-01-30T15:12:01;9.30;99.90
32097;DHT22;18610;49.916;8.284;2024-01-30T15:14:29;9.30;99.90
32097;DHT22;18610;49.916;8.284;2024-01-30T15:16:56;9.20;99.90
32097;DHT22;18610;49.916;8.284;2024-01-30T15:19:22;9.10;99.90
32097;DHT22;18610;49.916;8.284;2024-01-30T15:21:49;9.10;99.90
32097;DHT22;18610;49.916;8.284;2024-01-30T15:24:16;9.00;99.90
32097;DHT22;18610;49.916;8.284;2024-01-30T15:26:43;9.00;99.90
32097;DHT22;18610;49.916;8.284;2024-01-30T15:29:10;9.00;99.90
32097;DHT22;18610;49.916;8.284;2024-01-30T15:31:38;8.90;99.90
32097;DHT22;18610;49.916;8.284;2024-01-30T15:34:05;8.90;99.90
32097;DHT22;18610;49.916;8.284;2024-01-30T15:36:31;8.90;99.90
32097;DHT22;18610;49.916;8.284;2024-01-30T15:38:58;8.80;99.90
32097;DHT22;18610;49.916;8.284;2024-01-30T15:41:25;8.80;99.90
32097;DHT22;18610;49.916;8.284;2024-01-30T15:43:51;8.80;99.90